createdAt,value
2023-02-22T00:00:49.974Z,82.85
2023-02-22T00:05:55.317Z,85.28
2023-02-22T00:10:58.533Z,85.59
2023-02-22T00:16:03.457Z,85.78
2023-02-22T00:21:10.521Z,87.98
2023-02-22T00:26:18.148Z,85.08
2023-02-22T00:31:23.453Z,88.05
2023-02-22T00:36:26.300Z,89.39
2023-02-22T00:41:29.583Z,87.89
2023-02-22T00:46:33.740Z,88.70
2023-02-22T00:51:36.740Z,88.70
2023-02-22T00:56:39.601Z,93.38
2023-02-22T01:01:44.019Z,93.38
2023-02-22T01:06:46.759Z,91.28
2023-02-22T01:11:49.961Z,93.59
2023-02-22T01:16:55.224Z,91.62
2023-02-22T01:21:58.839Z,89.50
2023-02-22T01:27:02.550Z,88.66
2023-02-22T01:32:09.453Z,88.60
2023-02-22T01:37:12.482Z,88.70
2023-02-22T01:42:15.249Z,89.84
2023-02-22T01:47:19.335Z,91.49
2023-02-22T01:52:23.972Z,91.04
2023-02-22T01:57:30.220Z,91.59
2023-02-22T02:02:34.373Z,89.52
2023-02-22T02:07:39.763Z,88.11
2023-02-22T02:12:45.465Z,89.44
2023-02-22T02:17:51.537Z,90.56
2023-02-22T02:23:06.175Z,91.86
2023-02-22T02:28:37.070Z,90.17
2023-02-22T02:33:46.960Z,91.95
2023-02-22T02:38:56.651Z,91.16
2023-02-22T02:44:03.480Z,89.73
2023-02-22T02:49:14.207Z,89.52
2023-02-22T02:54:17.823Z,90.04
2023-02-22T02:59:27.115Z,95.07
2023-02-22T03:04:46.038Z,92.48
2023-02-22T03:10:00.571Z,94.12
2023-02-22T03:15:14.547Z,95.64
2023-02-22T03:20:31.547Z,94.62
2023-02-22T03:25:41.290Z,95.67
2023-02-22T03:30:49.913Z,95.70
2023-02-22T03:35:57.747Z,94.55
2023-02-22T03:41:03.772Z,94.39
2023-02-22T03:46:29.301Z,90.28
2023-02-22T03:51:34.344Z,91.95
2023-02-22T03:56:47.352Z,90.20
2023-02-22T04:01:51.093Z,92.22
2023-02-22T04:06:55.785Z,90.90
2023-02-22T04:11:59.463Z,90.24
2023-02-22T04:17:03.709Z,90.33
2023-02-22T04:22:08.656Z,89.90
2023-02-22T04:27:11.563Z,87.88
2023-02-22T04:32:15.297Z,88.10
2023-02-22T04:37:19.815Z,90.12
2023-02-22T04:42:22.658Z,89.40
2023-02-22T04:47:25.956Z,87.99
2023-02-22T04:52:30.221Z,87.82
2023-02-22T04:57:33.559Z,88.37
2023-02-22T05:02:36.632Z,91.04
2023-02-22T05:07:41.064Z,89.31
2023-02-22T05:12:43.873Z,88.72
2023-02-22T05:17:46.806Z,88.79
2023-02-22T05:22:51.990Z,89.54
2023-02-22T05:27:56.340Z,92.36
2023-02-22T05:33:00.206Z,91.28
2023-02-22T05:38:04.772Z,92.26
2023-02-22T05:43:07.724Z,92.01
2023-02-22T05:48:10.453Z,93.11
2023-02-22T05:53:14.657Z,91.66
2023-02-22T05:58:17.508Z,92.68
2023-02-22T06:03:20.332Z,92.26
2023-02-22T06:08:27.009Z,92.46
2023-02-22T06:13:33.353Z,94.25
2023-02-22T06:18:36.116Z,94.67
2023-02-22T06:23:40.321Z,89.39
2023-02-22T06:28:43.045Z,91.48
2023-02-22T06:33:51.450Z,94.20
2023-02-22T06:38:57.239Z,89.23
2023-02-22T06:43:59.996Z,88.71
2023-02-22T06:49:02.698Z,88.44
2023-02-22T06:54:07.120Z,88.97
2023-02-22T06:59:09.904Z,92.33
2023-02-22T07:04:12.623Z,91.93
2023-02-22T07:09:19.903Z,89.72
2023-02-22T07:14:23.216Z,87.77
2023-02-22T07:19:26.037Z,89.23
2023-02-22T07:24:30.244Z,91.85
2023-02-22T07:29:35.960Z,90.64
2023-02-22T07:34:39.446Z,89.29
2023-02-22T07:39:43.807Z,91.85
2023-02-22T07:44:46.821Z,93.73
2023-02-22T07:49:55.537Z,90.32
2023-02-22T07:55:07.177Z,90.94
2023-02-22T08:00:15.152Z,91.65
2023-02-22T08:05:19.061Z,90.00
2023-02-22T08:11:02.767Z,88.02
2023-02-22T08:16:08.020Z,88.04
2023-02-22T08:21:10.730Z,85.82
2023-02-22T08:26:18.437Z,85.30
2023-02-22T08:31:21.415Z,85.25
2023-02-22T08:36:25.013Z,83.07
2023-02-22T08:41:30.602Z,83.78
2023-02-22T08:46:39.393Z,86.40
2023-02-22T08:51:42.327Z,87.28
2023-02-22T08:56:46.756Z,84.12
2023-02-22T09:01:49.802Z,82.49
2023-02-22T09:07:18.521Z,83.26
2023-02-22T09:12:29.625Z,86.23
2023-02-22T09:17:38.046Z,84.08
2023-02-22T09:22:43.392Z,82.25
2023-02-22T09:27:49.717Z,82.75
2023-02-22T09:32:54.116Z,78.64
2023-02-22T09:37:57.610Z,82.19
2023-02-22T09:43:14.006Z,80.87
2023-02-22T09:48:22.334Z,79.53
2023-02-22T09:53:30.393Z,76.63
2023-02-22T09:58:41.890Z,75.44
2023-02-22T10:03:51.592Z,75.35
2023-02-22T10:08:58.134Z,74.08
2023-02-22T10:14:09.234Z,72.04
2023-02-22T10:19:26.548Z,72.22
2023-02-22T10:24:39.704Z,69.86
2023-02-22T10:29:48.662Z,68.82
2023-02-22T10:34:54.486Z,67.54
2023-02-22T10:40:05.829Z,68.04
2023-02-22T10:45:22.800Z,66.53
2023-02-22T10:50:27.559Z,65.79
2023-02-22T10:55:30.406Z,68.84
2023-02-22T11:00:38.238Z,65.40
2023-02-22T11:05:42.154Z,65.62
2023-02-22T11:10:45.084Z,62.56
2023-02-22T11:15:50.515Z,62.77
2023-02-22T11:21:01.964Z,66.58
2023-02-22T11:26:09.700Z,66.39
2023-02-22T11:31:17.571Z,63.27
2023-02-22T11:36:32.708Z,62.42
2023-02-22T11:41:36.159Z,61.75
2023-02-22T11:46:42.816Z,59.62
2023-02-22T11:52:01.003Z,59.56
2023-02-22T11:57:22.165Z,58.52
2023-02-22T12:02:51.808Z,57.20
2023-02-22T12:08:19.743Z,55.36
2023-02-22T12:13:36.780Z,56.59
2023-02-22T12:18:53.417Z,57.30
2023-02-22T12:24:03.281Z,56.18
2023-02-22T12:29:14.464Z,56.98
2023-02-22T12:34:30.373Z,55.74
2023-02-22T12:39:52.823Z,56.79
2023-02-22T12:45:04.079Z,55.79
2023-02-22T12:50:16.022Z,56.01
2023-02-22T12:55:24.984Z,55.48
2023-02-22T13:00:33.127Z,55.42
2023-02-22T13:05:40.438Z,57.14
2023-02-22T13:10:59.043Z,59.33
2023-02-22T13:16:11.697Z,57.90
2023-02-22T13:21:20.996Z,58.36
2023-02-22T13:26:28.886Z,59.39
2023-02-22T13:31:45.366Z,59.41
2023-02-22T13:37:04.135Z,59.12
2023-02-22T13:42:19.335Z,59.77
2023-02-22T13:47:46.679Z,59.25
2023-02-22T13:52:52.720Z,58.78
2023-02-22T13:58:03.343Z,58.27
2023-02-22T14:03:30.024Z,57.57
2023-02-22T14:08:51.997Z,59.52
2023-02-22T14:14:19.127Z,61.94
2023-02-22T14:19:23.776Z,61.64
2023-02-22T14:24:28.126Z,60.98
2023-02-22T14:29:32.042Z,61.86
2023-02-22T14:34:49.742Z,60.83
2023-02-22T14:40:02.138Z,62.24
2023-02-22T14:45:17.059Z,62.30
2023-02-22T14:50:24.821Z,61.55
2023-02-22T14:55:32.437Z,63.05
2023-02-22T15:00:41.166Z,64.10
2023-02-22T15:05:43.924Z,65.79
2023-02-22T15:10:54.280Z,64.37
2023-02-22T15:16:01.892Z,64.78
2023-02-22T15:21:11.002Z,65.80
2023-02-22T15:26:23.815Z,65.49
2023-02-22T15:31:32.563Z,68.30
2023-02-22T15:36:35.403Z,66.37
2023-02-22T15:41:40.575Z,66.99
2023-02-22T15:46:43.387Z,68.40
2023-02-22T15:51:51.583Z,66.39
2023-02-22T15:56:56.632Z,67.77
2023-02-22T16:02:00.484Z,69.00
2023-02-22T16:07:16.800Z,69.74
2023-02-22T16:12:28.231Z,68.73
2023-02-22T16:17:36.868Z,70.06
2023-02-22T16:22:41.021Z,67.55
2023-02-22T16:27:48.285Z,68.47
2023-02-22T16:32:54.066Z,69.87
2023-02-22T16:38:00.296Z,70.68
2023-02-22T16:43:07.457Z,71.47
2023-02-22T16:48:16.167Z,75.39
2023-02-22T16:53:20.896Z,73.19
2023-02-22T16:58:27.851Z,74.95
2023-02-22T17:03:30.642Z,74.11
2023-02-22T17:08:33.380Z,76.19
2023-02-22T17:13:39.395Z,77.31
2023-02-22T17:18:42.122Z,77.00
2023-02-22T17:23:46.108Z,77.75
2023-02-22T17:28:50.625Z,77.09
2023-02-22T17:33:53.470Z,76.92
2023-02-22T17:38:56.624Z,76.24
2023-02-22T17:44:00.738Z,76.99
2023-02-22T17:49:04.236Z,77.38
2023-02-22T17:54:08.265Z,77.93
2023-02-22T17:59:13.179Z,76.01
2023-02-22T18:04:15.941Z,76.90
2023-02-22T18:09:20.275Z,80.02
2023-02-22T18:14:24.877Z,79.61
2023-02-22T18:19:29.478Z,78.38
2023-02-22T18:24:34.500Z,78.46
2023-02-22T18:29:39.486Z,78.17
2023-02-22T18:34:43.556Z,78.21
2023-02-22T18:39:46.538Z,77.80
2023-02-22T18:44:51.115Z,78.55
2023-02-22T18:49:53.999Z,80.38
2023-02-22T18:55:08.865Z,79.64
2023-02-22T19:00:34.340Z,82.33
2023-02-22T19:05:40.765Z,83.65
2023-02-22T19:10:43.622Z,83.31
2023-02-22T19:15:48.921Z,82.38
2023-02-22T19:20:56.774Z,84.15
2023-02-22T19:25:59.546Z,82.66
2023-02-22T19:31:18.477Z,81.87
2023-02-22T19:36:23.946Z,84.02
2023-02-22T19:41:26.704Z,82.75
2023-02-22T19:46:31.082Z,83.59
2023-02-22T19:51:34.389Z,84.22
2023-02-22T19:56:37.252Z,83.57
2023-02-22T20:01:44.207Z,84.09
2023-02-22T20:21:15.738Z,82.92
2023-02-22T20:26:24.150Z,83.98
2023-02-22T20:31:32.388Z,84.79
2023-02-22T20:37:06.784Z,84.54
2023-02-22T20:42:15.586Z,83.55
2023-02-22T20:54:48.359Z,87.87
2023-02-22T21:00:12.690Z,87.99
2023-02-22T21:06:07.271Z,87.02
2023-02-22T21:11:26.163Z,85.83
2023-02-22T21:35:02.436Z,82.39
2023-02-22T21:40:29.678Z,87.07
2023-02-22T21:45:57.228Z,85.76
2023-02-22T21:51:13.889Z,85.66
2023-02-22T21:56:20.198Z,85.18
2023-02-22T22:01:27.145Z,85.57
2023-02-22T22:06:34.373Z,83.22
2023-02-22T22:11:37.329Z,84.56
2023-02-22T22:16:40.453Z,83.51
2023-02-22T22:21:46.582Z,85.13
2023-02-22T22:26:51.066Z,82.92
2023-02-22T22:31:54.469Z,83.58
2023-02-22T22:36:58.999Z,82.94
2023-02-22T22:42:01.851Z,83.91
2023-02-22T22:47:05.881Z,87.47
2023-02-22T22:52:11.385Z,85.52
2023-02-22T22:57:14.614Z,90.59
2023-02-22T23:02:20.487Z,88.91
2023-02-22T23:07:24.616Z,86.83
2023-02-22T23:12:31.467Z,87.08
2023-02-22T23:17:41.175Z,86.25
2023-02-22T23:22:47.235Z,88.40
2023-02-22T23:27:53.096Z,86.54
2023-02-22T23:32:57.437Z,85.31
2023-02-22T23:38:01.712Z,85.62
2023-02-22T23:43:05.758Z,88.05
2023-02-22T23:48:08.498Z,87.95
2023-02-22T23:53:15.237Z,87.22
2023-02-22T23:58:17.970Z,89.60
